Time;durP1;ratioP1;P1;durP2;ratioP2;P2;SDS_P1;SDS_P2;PMS_P1;PMS_P2;Temp;Humidity;BMP_temperature;BMP_pressure;BME280_temperature;BME280_humidity;BME280_pressure;Samples;Min_cycle;Max_cycle;Signal;HPM_P1;HPM_P2
2022/04/08 00:01:41;;;;;;;5.03;4.20;;;12.20;99.90;;;;;;5037912;28;20205;-90
2022/04/08 00:04:08;;;;;;;6.57;4.40;;;12.20;99.90;;;;;;5019888;28;20181;-90
2022/04/08 00:06:34;;;;;;;5.65;3.90;;;12.20;99.90;;;;;;5021304;28;20249;-91
2022/04/08 00:09:00;;;;;;;4.40;4.00;;;12.20;99.90;;;;;;5036535;28;20174;-91
2022/04/08 00:11:26;;;;;;;5.10;4.47;;;12.30;99.90;;;;;;5036576;28;20182;-90
2022/04/08 00:13:53;;;;;;;6.00;4.00;;;12.30;99.90;;;;;;5042100;28;20652;-90
2022/04/08 00:16:19;;;;;;;8.02;4.45;;;12.30;99.90;;;;;;5025956;28;20508;-90
2022/04/08 00:18:46;;;;;;;4.97;4.28;;;12.30;99.90;;;;;;5014175;28;20206;-91
2022/04/08 00:21:11;;;;;;;4.35;3.78;;;12.30;99.90;;;;;;5015739;28;20254;-91
2022/04/08 00:23:37;;;;;;;5.23;4.10;;;12.30;99.90;;;;;;5015320;28;20268;-91
2022/04/08 00:26:03;;;;;;;5.13;4.67;;;12.30;99.90;;;;;;5015692;28;20767;-90
2022/04/08 00:28:29;;;;;;;8.37;5.03;;;12.30;99.90;;;;;;5014911;28;20265;-89
2022/04/08 00:30:54;;;;;;;6.17;4.87;;;12.30;99.90;;;;;;5031585;28;20598;-91
2022/04/08 00:33:20;;;;;;;5.70;5.00;;;12.30;99.90;;;;;;5014456;28;20253;-91
2022/04/08 00:35:46;;;;;;;5.97;4.63;;;12.30;99.90;;;;;;5014411;28;20274;-91
2022/04/08 00:38:12;;;;;;;6.20;4.33;;;12.30;99.90;;;;;;5014614;28;20206;-90
2022/04/08 00:40:37;;;;;;;8.73;4.43;;;12.20;99.90;;;;;;5032219;28;20443;-90
2022/04/08 00:43:17;;;;;;;5.47;4.30;;;12.20;99.90;;;;;;5016196;28;20679;-90
2022/04/08 00:45:43;;;;;;;4.13;3.47;;;12.20;99.90;;;;;;5015860;28;20278;-90
2022/04/08 00:48:09;;;;;;;8.27;4.90;;;12.20;99.90;;;;;;5031427;28;20700;-90
2022/04/08 00:50:41;;;;;;;4.95;4.25;;;12.10;99.90;;;;;;5016888;28;20195;-91
2022/04/08 00:53:07;;;;;;;7.35;4.72;;;12.10;99.90;;;;;;5017867;28;20294;-91
2022/04/08 00:55:37;;;;;;;4.93;4.43;;;12.00;99.90;;;;;;5038425;28;20191;-91
2022/04/08 00:58:04;;;;;;;5.75;5.05;;;12.00;99.90;;;;;;5014811;28;20205;-90
2022/04/08 01:00:36;;;;;;;5.10;4.38;;;12.00;99.90;;;;;;5015025;28;20199;-90
2022/04/08 01:03:02;;;;;;;8.95;5.07;;;12.00;99.90;;;;;;5014083;28;20214;-91
2022/04/08 01:05:28;;;;;;;6.50;4.82;;;12.00;99.90;;;;;;5014602;28;20274;-90
2022/04/08 01:07:56;;;;;;;7.70;4.40;;;11.90;99.90;;;;;;5016274;28;20262;-90
2022/04/08 01:10:23;;;;;;;6.35;4.55;;;11.90;99.90;;;;;;5017076;28;20405;-90
2022/04/08 01:12:49;;;;;;;8.20;5.47;;;11.90;99.90;;;;;;5015469;28;20633;-88
2022/04/08 01:15:17;;;;;;;7.50;5.55;;;11.90;99.90;;;;;;5015997;28;20554;-90
2022/04/08 01:17:43;;;;;;;7.40;5.13;;;11.80;99.90;;;;;;5034393;28;20229;-91
2022/04/08 01:20:09;;;;;;;6.55;4.57;;;11.80;99.90;;;;;;5035245;28;20178;-90
2022/04/08 01:22:36;;;;;;;6.18;5.20;;;11.80;99.90;;;;;;5036594;28;20198;-90
2022/04/08 01:25:03;;;;;;;8.45;5.05;;;11.80;99.90;;;;;;5040168;28;20228;-91
2022/04/08 01:27:29;;;;;;;6.32;4.75;;;11.70;99.90;;;;;;5038996;28;20218;-89
2022/04/08 01:29:55;;;;;;;8.48;5.25;;;11.70;99.90;;;;;;5038687;28;20182;-90
2022/04/08 01:32:23;;;;;;;6.00;5.38;;;11.70;99.90;;;;;;5038420;28;20206;-90
2022/04/08 01:34:49;;;;;;;6.97;5.70;;;11.70;99.90;;;;;;5038823;28;20220;-90
2022/04/08 01:37:19;;;;;;;7.63;5.72;;;11.70;99.90;;;;;;5039803;28;20202;-91
2022/04/08 01:39:44;;;;;;;8.38;5.65;;;11.60;99.90;;;;;;5038503;28;20186;-91
2022/04/08 01:42:10;;;;;;;7.80;6.00;;;11.60;99.90;;;;;;5054600;28;20210;-91
2022/04/08 01:44:37;;;;;;;7.67;5.90;;;11.60;99.90;;;;;;5037851;28;20181;-89
2022/04/08 01:47:03;;;;;;;7.60;6.18;;;11.60;99.90;;;;;;5038590;28;20214;-91
2022/04/08 01:49:29;;;;;;;7.80;6.00;;;11.60;99.90;;;;;;5039659;28;20236;-88
2022/04/08 01:51:55;;;;;;;13.00;5.88;;;11.60;99.90;;;;;;5038991;28;20202;-90
2022/04/08 01:54:21;;;;;;;7.27;5.47;;;11.60;99.90;;;;;;5039065;28;20186;-90
2022/04/08 01:56:47;;;;;;;8.88;5.97;;;11.50;99.90;;;;;;5041007;28;20426;-90
2022/04/08 01:59:13;;;;;;;9.83;6.30;;;11.50;99.90;;;;;;5041753;28;20175;-89
2022/04/08 02:01:39;;;;;;;6.30;5.70;;;11.50;99.90;;;;;;5047620;28;20439;-91
2022/04/08 02:04:05;;;;;;;9.83;5.30;;;11.50;99.90;;;;;;5050655;28;20242;-89
2022/04/08 02:06:31;;;;;;;7.67;5.33;;;11.40;99.90;;;;;;5061793;28;21022;-91
2022/04/08 02:08:57;;;;;;;8.20;5.95;;;11.40;99.90;;;;;;5042596;28;20197;-91
2022/04/08 02:11:24;;;;;;;7.43;5.67;;;11.40;99.90;;;;;;5041654;28;20179;-91
2022/04/08 02:13:50;;;;;;;7.15;5.60;;;11.40;99.90;;;;;;5043581;28;20432;-90
2022/04/08 02:16:16;;;;;;;5.15;4.43;;;11.40;99.90;;;;;;5028911;28;20266;-91
2022/04/08 02:18:42;;;;;;;8.60;5.13;;;11.30;99.90;;;;;;5017503;28;20293;-90
2022/04/08 02:21:12;;;;;;;6.97;5.03;;;11.40;99.90;;;;;;5019153;28;20205;-90
2022/04/08 02:23:38;;;;;;;7.15;5.65;;;11.40;99.90;;;;;;5017832;28;20536;-91
2022/04/08 02:26:05;;;;;;;6.60;5.07;;;11.30;99.90;;;;;;5018912;28;20680;-91
2022/04/08 02:28:34;;;;;;;6.53;5.72;;;11.30;99.90;;;;;;5019621;28;20218;-90
2022/04/08 02:31:00;;;;;;;7.35;4.80;;;11.30;99.90;;;;;;5019908;28;20628;-91
2022/04/08 02:33:26;;;;;;;6.40;5.23;;;11.30;99.90;;;;;;5034862;28;20213;-90
2022/04/08 02:35:52;;;;;;;7.80;4.97;;;11.30;99.90;;;;;;5018089;28;20214;-90
2022/04/08 02:38:17;;;;;;;6.30;5.63;;;11.20;99.90;;;;;;5017469;28;20209;-91
2022/04/08 02:40:43;;;;;;;7.90;6.33;;;11.20;99.90;;;;;;5034330;28;20266;-90
2022/04/08 02:43:09;;;;;;;6.47;5.13;;;11.30;99.90;;;;;;5018965;28;20692;-89
2022/04/08 02:45:36;;;;;;;7.47;5.70;;;11.20;99.90;;;;;;5035003;28;20209;-91
2022/04/08 02:48:03;;;;;;;9.35;5.95;;;11.20;99.90;;;;;;5034419;28;20297;-90
2022/04/08 02:50:29;;;;;;;9.18;5.90;;;11.20;99.90;;;;;;5019781;28;20176;-90
2022/04/08 02:52:54;;;;;;;11.90;7.07;;;11.20;99.90;;;;;;5018663;28;20201;-91
2022/04/08 02:55:20;;;;;;;8.27;6.20;;;11.20;99.90;;;;;;5017770;28;20413;-89
2022/04/08 02:57:47;;;;;;;9.50;6.50;;;11.30;99.90;;;;;;5017285;28;20206;-89
2022/04/08 03:00:17;;;;;;;6.85;5.45;;;11.20;99.90;;;;;;5017466;28;20499;-91
2022/04/08 03:02:44;;;;;;;8.70;6.38;;;11.20;99.90;;;;;;5018707;28;20253;-91
2022/04/08 03:05:10;;;;;;;6.72;6.00;;;11.30;99.90;;;;;;5035391;28;20266;-90
2022/04/08 03:07:36;;;;;;;7.40;5.30;;;11.30;99.90;;;;;;5018796;28;20318;-90
2022/04/08 03:10:07;;;;;;;9.73;5.97;;;11.30;99.90;;;;;;5017808;28;20395;-89
2022/04/08 03:12:33;;;;;;;8.35;6.43;;;11.30;99.90;;;;;;5048226;28;20415;-90
2022/04/08 03:14:59;;;;;;;10.27;6.93;;;11.40;99.90;;;;;;5025102;28;20191;-89
2022/04/08 03:17:25;;;;;;;7.18;6.15;;;11.40;99.90;;;;;;5034304;28;20422;-91
2022/04/08 03:19:51;;;;;;;6.80;5.45;;;11.40;99.90;;;;;;5035761;28;20201;-89
2022/04/08 03:22:20;;;;;;;10.73;6.70;;;11.40;99.90;;;;;;5035487;28;20202;-91
2022/04/08 03:24:50;;;;;;;8.02;5.63;;;11.40;99.90;;;;;;5037271;28;20419;-90
2022/04/08 03:27:17;;;;;;;8.68;6.35;;;11.30;99.90;;;;;;5037234;28;20226;-90
2022/04/08 03:29:43;;;;;;;9.10;6.82;;;11.30;99.90;;;;;;5036538;28;20179;-88
2022/04/08 03:32:09;;;;;;;10.52;6.43;;;11.30;99.90;;;;;;5035466;28;20206;-90
2022/04/08 03:34:35;;;;;;;8.95;7.00;;;11.40;99.90;;;;;;5036140;28;20660;-90
2022/04/08 03:37:01;;;;;;;12.53;6.87;;;11.40;99.90;;;;;;5036311;28;20202;-91
2022/04/08 03:39:27;;;;;;;8.75;6.22;;;11.40;99.90;;;;;;5036471;28;20481;-89
2022/04/08 03:41:53;;;;;;;10.43;7.00;;;11.50;99.90;;;;;;5036247;28;20295;-92
2022/04/08 03:44:19;;;;;;;11.15;6.55;;;11.60;99.90;;;;;;5036171;28;20186;-92
2022/04/08 03:46:46;;;;;;;8.03;5.60;;;11.60;99.90;;;;;;5036414;28;20175;-89
2022/04/08 03:49:14;;;;;;;10.25;6.53;;;11.70;99.90;;;;;;5037953;28;20913;-91
2022/04/08 03:51:44;;;;;;;9.20;6.93;;;11.80;99.90;;;;;;5037630;28;20576;-92
2022/04/08 03:54:10;;;;;;;8.85;7.15;;;11.80;99.90;;;;;;5037261;28;20269;-91
2022/04/08 03:56:37;;;;;;;10.32;7.47;;;11.90;99.90;;;;;;5039732;28;20179;-90
2022/04/08 03:59:03;;;;;;;11.65;7.57;;;11.90;99.90;;;;;;5043656;28;20240;-90
2022/04/08 04:01:29;;;;;;;9.82;7.57;;;12.00;99.90;;;;;;5035979;28;20182;-90
2022/04/08 04:03:55;;;;;;;10.47;6.60;;;12.00;99.90;;;;;;5036741;28;20543;-91
2022/04/08 04:06:20;;;;;;;8.20;6.10;;;12.00;99.90;;;;;;5006202;28;20238;-92
2022/04/08 04:08:46;;;;;;;11.80;6.63;;;12.00;99.90;;;;;;4997898;28;20221;-89
2022/04/08 04:11:16;;;;;;;7.40;6.50;;;12.10;99.90;;;;;;4997962;28;20281;-90
2022/04/08 04:13:42;;;;;;;10.40;8.18;;;12.10;99.90;;;;;;4997599;28;20674;-89
2022/04/08 04:16:08;;;;;;;9.20;6.55;;;12.10;99.90;;;;;;5022573;28;20205;-92
2022/04/08 04:18:34;;;;;;;7.77;5.80;;;12.10;99.90;;;;;;5034504;28;20701;-89
2022/04/08 04:21:00;;;;;;;8.90;6.40;;;12.20;99.90;;;;;;5017632;28;20431;-92
2022/04/08 04:23:25;;;;;;;9.37;6.43;;;12.20;99.90;;;;;;5034187;28;20256;-88
2022/04/08 04:25:51;;;;;;;9.37;7.20;;;12.20;99.90;;;;;;5034822;28;20472;-92
2022/04/08 04:28:17;;;;;;;12.00;8.07;;;12.20;99.90;;;;;;5016556;28;20313;-89
2022/04/08 04:30:42;;;;;;;11.53;6.70;;;12.20;99.90;;;;;;4992674;28;20237;-92
2022/04/08 04:33:08;;;;;;;14.80;6.30;;;12.30;99.90;;;;;;4984280;28;20294;-90
2022/04/08 04:35:35;;;;;;;9.20;5.30;;;12.30;99.90;;;;;;4998032;28;20600;-90
2022/04/08 04:38:01;;;;;;;10.77;7.20;;;12.30;99.90;;;;;;4990208;28;20206;-90
2022/04/08 04:40:26;;;;;;;7.83;5.63;;;12.40;99.90;;;;;;4991685;28;20742;-92
2022/04/08 04:42:52;;;;;;;8.77;5.57;;;12.40;99.90;;;;;;5020321;28;20253;-92
2022/04/08 04:45:19;;;;;;;8.27;5.40;;;12.50;99.90;;;;;;4999441;28;20182;-89
2022/04/08 04:47:45;;;;;;;6.80;5.90;;;12.50;99.90;;;;;;5008216;28;20229;-90
2022/04/08 04:50:10;;;;;;;9.47;6.23;;;12.50;99.90;;;;;;5008559;28;20274;-88
2022/04/08 04:52:36;;;;;;;8.90;6.10;;;12.60;99.90;;;;;;5010864;28;20222;-89
2022/04/08 04:55:03;;;;;;;7.00;6.30;;;12.60;99.90;;;;;;5012873;28;20440;-88
2022/04/08 04:57:29;;;;;;;8.52;6.20;;;12.70;99.90;;;;;;4998709;28;20495;-89
2022/04/08 04:59:55;;;;;;;7.50;5.93;;;12.70;99.90;;;;;;4997469;28;20187;-90
2022/04/08 05:02:20;;;;;;;9.53;6.10;;;12.70;99.90;;;;;;4996334;28;20518;-90
2022/04/08 05:04:46;;;;;;;9.00;6.17;;;12.80;99.90;;;;;;4990780;28;20278;-89
2022/04/08 05:07:11;;;;;;;8.70;6.20;;;12.80;99.90;;;;;;5002405;28;20308;-90
2022/04/08 05:09:41;;;;;;;10.37;6.60;;;12.80;99.90;;;;;;5007848;28;20185;-89
2022/04/08 05:12:08;;;;;;;10.70;7.10;;;12.80;99.90;;;;;;5004525;28;20635;-92
2022/04/08 05:14:34;;;;;;;7.50;6.60;;;12.90;99.90;;;;;;5021181;28;20176;-92
2022/04/08 05:17:00;;;;;;;11.68;8.20;;;12.90;99.90;;;;;;5031480;28;20289;-90
2022/04/08 05:19:26;;;;;;;11.70;6.60;;;13.00;99.90;;;;;;5026529;28;20229;-90
2022/04/08 05:21:52;;;;;;;12.93;6.70;;;13.00;99.90;;;;;;5010639;28;20203;-91
2022/04/08 05:24:21;;;;;;;8.20;5.87;;;13.00;99.90;;;;;;5038150;28;20185;-89
2022/04/08 05:26:47;;;;;;;8.23;5.88;;;13.10;99.90;;;;;;5037092;28;20811;-91
2022/04/08 05:29:13;;;;;;;11.33;7.53;;;13.10;99.90;;;;;;5034635;28;20253;-88
2022/04/08 05:31:39;;;;;;;13.00;8.30;;;13.20;99.90;;;;;;5026299;28;20771;-91
2022/04/08 05:34:05;;;;;;;10.63;8.07;;;13.20;99.90;;;;;;5008654;28;20527;-89
2022/04/08 05:36:31;;;;;;;10.80;8.03;;;13.20;99.90;;;;;;5012408;28;20466;-91
2022/04/08 05:38:57;;;;;;;11.50;7.90;;;13.30;99.90;;;;;;5022544;28;20432;-90
2022/04/08 05:41:23;;;;;;;7.37;6.40;;;13.30;99.90;;;;;;5021735;28;20446;-89
2022/04/08 05:43:48;;;;;;;10.00;7.20;;;13.40;99.90;;;;;;5032015;28;20210;-91
2022/04/08 05:46:15;;;;;;;6.83;5.50;;;13.40;99.90;;;;;;5016111;28;20678;-91
2022/04/08 05:48:41;;;;;;;7.53;6.07;;;13.40;99.90;;;;;;5016397;28;20229;-91
2022/04/08 05:51:07;;;;;;;11.23;5.63;;;13.50;99.90;;;;;;5020215;28;20478;-89
2022/04/08 05:53:33;;;;;;;9.17;6.87;;;13.50;99.90;;;;;;5018478;28;20443;-90
2022/04/08 05:56:00;;;;;;;9.30;6.63;;;13.60;99.90;;;;;;5026522;28;20451;-89
2022/04/08 05:58:26;;;;;;;8.77;6.73;;;13.60;99.90;;;;;;5031197;28;20230;-90
2022/04/08 06:00:52;;;;;;;8.10;6.37;;;13.70;99.90;;;;;;5003033;28;20839;-91
2022/04/08 06:03:18;;;;;;;8.23;5.80;;;13.80;99.90;;;;;;4996226;28;20452;-89
2022/04/08 06:05:43;;;;;;;10.53;6.80;;;13.80;99.90;;;;;;5027253;28;20431;-90
2022/04/08 06:08:09;;;;;;;9.60;5.97;;;13.90;99.90;;;;;;5030622;28;20245;-89
2022/04/08 06:10:36;;;;;;;10.00;6.10;;;13.90;99.90;;;;;;5022158;28;20206;-90
2022/04/08 06:13:02;;;;;;;6.93;5.77;;;14.00;99.90;;;;;;5012974;28;20459;-90
2022/04/08 06:15:28;;;;;;;8.97;6.33;;;14.00;99.90;;;;;;5017321;28;20435;-91
2022/04/08 06:17:57;;;;;;;8.40;6.47;;;14.00;99.90;;;;;;5037607;28;20442;-90
2022/04/08 06:20:24;;;;;;;7.27;5.83;;;14.10;99.90;;;;;;5025197;28;20415;-90
2022/04/08 06:22:51;;;;;;;8.23;5.73;;;14.20;99.90;;;;;;5013587;28;20480;-91
2022/04/08 06:25:19;;;;;;;8.93;6.10;;;14.20;99.90;;;;;;5015061;28;20452;-89
2022/04/08 06:27:55;;;;;;;9.27;5.83;;;14.30;99.90;;;;;;5014710;28;20468;-91
2022/04/08 06:30:21;;;;;;;8.00;5.67;;;14.30;99.90;;;;;;5017467;28;20420;-90
2022/04/08 06:32:46;;;;;;;6.40;4.97;;;14.40;99.90;;;;;;5027838;28;20453;-92
2022/04/08 06:35:12;;;;;;;8.80;6.33;;;14.50;99.90;;;;;;5000389;28;20278;-90
2022/04/08 06:37:38;;;;;;;8.83;6.70;;;14.60;99.90;;;;;;5012435;28;20214;-90
2022/04/08 06:40:09;;;;;;;7.00;5.67;;;14.70;99.90;;;;;;5011045;28;20751;-91
2022/04/08 06:42:35;;;;;;;6.70;5.67;;;14.80;99.90;;;;;;5012923;28;20449;-93
2022/04/08 06:45:03;;;;;;;7.10;5.67;;;14.90;99.90;;;;;;5003474;28;20425;-91
2022/04/08 06:47:29;;;;;;;10.70;6.73;;;15.00;99.90;;;;;;5006255;28;20523;-90
2022/04/08 06:49:54;;;;;;;10.30;6.23;;;15.10;99.90;;;;;;5016866;28;20437;-93
2022/04/08 06:52:20;;;;;;;10.80;6.93;;;15.20;99.90;;;;;;5004859;28;20298;-93
2022/04/08 06:54:46;;;;;;;9.57;7.10;;;15.20;99.90;;;;;;5020561;28;20565;-90
2022/04/08 06:57:12;;;;;;;7.90;7.10;;;15.30;99.90;;;;;;5010022;28;20462;-91
2022/04/08 06:59:39;;;;;;;8.37;6.07;;;15.40;99.90;;;;;;5002955;28;20290;-90
2022/04/08 07:02:05;;;;;;;6.47;5.80;;;15.40;99.90;;;;;;5011269;28;20468;-93
2022/04/08 07:04:31;;;;;;;9.60;6.83;;;15.50;99.90;;;;;;5001729;28;20448;-91
2022/04/08 07:06:57;;;;;;;8.33;5.80;;;15.60;99.90;;;;;;4993479;28;20736;-92
2022/04/08 07:09:23;;;;;;;6.70;5.80;;;15.70;99.90;;;;;;5006434;28;20187;-92
2022/04/08 07:11:49;;;;;;;7.57;5.70;;;15.80;99.90;;;;;;5005948;28;20214;-91
2022/04/08 07:14:14;;;;;;;10.70;5.10;;;15.90;99.90;;;;;;5001685;28;20425;-90
2022/04/08 07:16:43;;;;;;;5.50;4.20;;;16.00;99.90;;;;;;5026286;28;20524;-93
2022/04/08 07:19:11;;;;;;;5.80;4.17;;;16.20;99.90;;;;;;5007744;28;21044;-93
2022/04/08 07:21:37;;;;;;;3.57;3.07;;;16.30;99.90;;;;;;4992398;28;20448;-92
2022/04/08 07:24:03;;;;;;;4.10;2.73;;;16.40;99.90;;;;;;4994942;28;20409;-92
2022/04/08 07:26:29;;;;;;;5.33;3.33;;;16.50;99.90;;;;;;5011300;28;20415;-92
2022/04/08 07:28:55;;;;;;;3.00;2.70;;;16.60;99.90;;;;;;5028872;28;20471;-92
2022/04/08 07:31:22;;;;;;;3.23;2.90;;;16.80;99.90;;;;;;5008686;28;20449;-91
2022/04/08 07:33:50;;;;;;;3.10;2.70;;;16.90;99.90;;;;;;5004865;28;20203;-93
2022/04/08 07:36:16;;;;;;;3.10;2.80;;;17.00;99.90;;;;;;5003002;28;20446;-92
2022/04/08 07:38:42;;;;;;;4.60;3.30;;;17.00;99.90;;;;;;5026952;28;20485;-93
2022/04/08 07:41:07;;;;;;;4.43;2.70;;;17.10;99.90;;;;;;5016298;28;20199;-91
2022/04/08 07:43:33;;;;;;;3.90;2.80;;;17.20;99.90;;;;;;5009653;28;20464;-91
2022/04/08 07:45:59;;;;;;;3.10;2.43;;;17.30;99.90;;;;;;5004061;28;20233;-91
2022/04/08 07:48:24;;;;;;;3.80;2.80;;;17.40;99.90;;;;;;5008182;28;20272;-91
2022/04/08 07:50:50;;;;;;;3.10;2.23;;;17.50;99.90;;;;;;5003663;28;20184;-92
2022/04/08 07:53:16;;;;;;;5.13;2.53;;;17.60;99.90;;;;;;5019919;28;20222;-91
2022/04/08 07:55:42;;;;;;;2.90;2.07;;;17.70;99.90;;;;;;5008375;28;20240;-92
2022/04/08 07:58:07;;;;;;;5.13;2.17;;;17.80;99.90;;;;;;5006361;28;20578;-94
2022/04/08 08:00:34;;;;;;;4.90;2.23;;;17.90;99.60;;;;;;5004718;28;20183;-91
2022/04/08 08:03:00;;;;;;;3.37;1.97;;;18.00;98.80;;;;;;5013356;28;20850;-93
2022/04/08 08:05:28;;;;;;;3.27;2.40;;;18.10;98.60;;;;;;5003461;28;20922;-91
2022/04/08 08:07:54;;;;;;;2.73;2.40;;;18.20;98.40;;;;;;5002305;28;21060;-93
2022/04/08 08:10:26;;;;;;;2.90;2.17;;;18.20;98.20;;;;;;5007245;28;20426;-91
2022/04/08 08:12:53;;;;;;;3.23;2.30;;;18.30;99.00;;;;;;4992694;28;20816;-91
2022/04/08 08:15:20;;;;;;;2.97;2.27;;;18.50;99.60;;;;;;4989870;28;20421;-91
2022/04/08 08:17:46;;;;;;;3.50;2.90;;;18.60;99.00;;;;;;4981650;28;20460;-91
2022/04/08 08:20:14;;;;;;;3.50;2.10;;;18.80;98.20;;;;;;5009011;28;20424;-92
2022/04/08 08:22:41;;;;;;;3.67;2.40;;;18.90;97.40;;;;;;4997898;28;20493;-91
2022/04/08 08:25:07;;;;;;;3.63;2.77;;;19.00;97.60;;;;;;4995821;28;20432;-91
2022/04/08 08:27:40;;;;;;;2.93;2.00;;;19.10;97.80;;;;;;4995404;28;20485;-94
2022/04/08 08:30:08;;;;;;;2.50;1.80;;;19.10;96.60;;;;;;4998755;28;20419;-91
2022/04/08 08:32:34;;;;;;;2.67;2.47;;;19.20;97.70;;;;;;4990173;28;20833;-93
2022/04/08 08:34:59;;;;;;;2.63;2.37;;;19.20;97.40;;;;;;4980107;28;20429;-93
2022/04/08 08:37:25;;;;;;;4.97;2.30;;;19.20;97.60;;;;;;4989349;28;20522;-93
2022/04/08 08:39:55;;;;;;;2.67;2.40;;;19.30;97.80;;;;;;4982253;28;20169;-92
2022/04/08 08:42:22;;;;;;;3.30;2.80;;;19.40;97.60;;;;;;4985399;28;20217;-91
2022/04/08 08:44:48;;;;;;;3.13;2.40;;;19.50;96.70;;;;;;4987694;28;20434;-91
2022/04/08 08:47:16;;;;;;;3.27;2.53;;;19.70;96.90;;;;;;4990532;28;20611;-94
2022/04/08 08:49:48;;;;;;;5.43;2.80;;;20.10;96.50;;;;;;5008619;28;20263;-94
2022/04/08 08:52:16;;;;;;;3.13;2.50;;;20.40;95.70;;;;;;4992734;28;20454;-92
2022/04/08 08:54:43;;;;;;;2.97;2.30;;;20.90;94.30;;;;;;5016791;28;20442;-94
2022/04/08 08:57:10;;;;;;;5.93;3.20;;;21.30;93.50;;;;;;5018439;28;20495;-93
2022/04/08 08:59:39;;;;;;;3.73;2.90;;;21.60;93.70;;;;;;5013323;28;20440;-93
2022/04/08 09:02:05;;;;;;;2.53;2.33;;;21.80;93.20;;;;;;4993101;28;20487;-91
2022/04/08 09:04:30;;;;;;;4.33;2.87;;;21.90;92.40;;;;;;4992938;28;20449;-94
2022/04/08 09:06:57;;;;;;;5.50;3.20;;;22.00;90.90;;;;;;4994174;28;20266;-93
2022/04/08 09:09:32;;;;;;;3.20;2.73;;;22.00;91.10;;;;;;4990430;28;20191;-93
2022/04/08 09:12:14;;;;;;;4.13;3.00;;;22.10;90.70;;;;;;4980480;28;20467;-92
2022/04/08 09:14:51;;;;;;;5.40;3.13;;;22.00;90.10;;;;;;4990072;28;20451;-92
2022/04/08 09:17:22;;;;;;;5.40;3.50;;;21.90;90.20;;;;;;5006020;28;20459;-93
2022/04/08 09:19:56;;;;;;;3.57;3.23;;;21.80;90.20;;;;;;4983406;28;20429;-93
2022/04/08 09:22:29;;;;;;;4.80;3.20;;;21.60;88.80;;;;;;4983337;28;20475;-92
2022/04/08 09:25:05;;;;;;;6.30;3.00;;;21.40;88.90;;;;;;4986695;28;20414;-91
2022/04/08 09:27:34;;;;;;;3.17;2.30;;;21.30;89.80;;;;;;5009237;28;20526;-93
2022/04/08 09:30:00;;;;;;;4.37;2.23;;;21.10;89.80;;;;;;4991711;28;20408;-92
2022/04/08 09:32:27;;;;;;;2.80;2.20;;;20.90;88.80;;;;;;4981652;28;20464;-91
2022/04/08 09:34:53;;;;;;;2.60;1.83;;;20.80;90.10;;;;;;5009042;28;20186;-92
2022/04/08 09:37:19;;;;;;;3.50;2.17;;;20.60;90.20;;;;;;4996449;28;20559;-92
2022/04/08 09:39:54;;;;;;;1.73;1.63;;;20.40;89.70;;;;;;5006572;28;21065;-89
2022/04/08 09:42:20;;;;;;;2.07;1.80;;;20.30;90.50;;;;;;5008433;28;20205;-93
2022/04/08 09:44:47;;;;;;;4.13;2.43;;;20.20;89.70;;;;;;4987406;28;20515;-92
2022/04/08 09:47:16;;;;;;;2.70;1.63;;;20.00;89.00;;;;;;5006407;28;20926;-93
2022/04/08 09:49:42;;;;;;;2.70;1.73;;;19.90;89.10;;;;;;5011241;28;20453;-90
2022/04/08 09:52:14;;;;;;;3.93;2.30;;;19.80;90.00;;;;;;4994094;28;20490;-94
2022/04/08 09:54:43;;;;;;;1.80;1.70;;;19.70;90.30;;;;;;4996333;28;20189;-93
2022/04/08 09:57:17;;;;;;;1.60;1.50;;;19.60;90.20;;;;;;5010983;28;20934;-93
2022/04/08 09:59:45;;;;;;;2.60;1.70;;;19.60;90.40;;;;;;4994470;28;20435;-91
2022/04/08 10:02:15;;;;;;;2.03;1.20;;;19.60;90.50;;;;;;4991363;28;20905;-90
2022/04/08 10:04:42;;;;;;;2.03;1.60;;;19.60;88.40;;;;;;5014452;28;20429;-90
2022/04/08 10:07:09;;;;;;;1.20;1.10;;;19.60;87.00;;;;;;5001860;28;20483;-93
2022/04/08 10:10:07;;;;;;;2.27;1.43;;;19.60;89.30;;;;;;5007282;28;20431;-90
2022/04/08 10:13:02;;;;;;;2.70;1.10;;;19.50;90.20;;;;;;5000146;28;20809;-90
2022/04/08 10:15:39;;;;;;;2.60;1.57;;;19.50;89.30;;;;;;5004366;28;20521;-93
2022/04/08 10:18:05;;;;;;;1.33;1.20;;;19.50;90.40;;;;;;5016451;28;20459;-91
2022/04/08 10:20:33;;;;;;;1.43;1.33;;;19.60;87.60;;;;;;4997321;28;20427;-91
2022/04/08 10:23:10;;;;;;;1.57;1.30;;;19.50;84.60;;;;;;5011766;28;20490;-91
2022/04/08 10:25:40;;;;;;;1.07;0.90;;;19.60;84.00;;;;;;5001627;28;20771;-91
2022/04/08 10:28:07;;;;;;;3.23;1.03;;;19.60;87.30;;;;;;5002810;28;21000;-91
2022/04/08 10:30:36;;;;;;;3.37;1.10;;;19.70;88.80;;;;;;5014493;28;20441;-94
2022/04/08 10:33:07;;;;;;;1.33;0.90;;;19.70;86.00;;;;;;5000330;28;20450;-93
2022/04/08 10:35:33;;;;;;;1.80;1.30;;;19.70;88.10;;;;;;5002413;28;20435;-93
2022/04/08 10:38:00;;;;;;;2.97;1.30;;;19.70;84.40;;;;;;5006856;28;20451;-94
2022/04/08 10:40:30;;;;;;;2.73;1.13;;;19.70;82.60;;;;;;5000404;28;20439;-93
2022/04/08 10:43:01;;;;;;;1.57;1.10;;;19.70;82.10;;;;;;5012033;28;20546;-91
2022/04/08 10:45:26;;;;;;;1.17;1.03;;;19.70;82.30;;;;;;5006636;28;20422;-91
2022/04/08 10:47:52;;;;;;;3.83;2.57;;;19.70;82.10;;;;;;5003926;28;20471;-94
2022/04/08 10:50:30;;;;;;;2.90;1.30;;;19.70;81.50;;;;;;4994424;28;20198;-93
2022/04/08 10:53:21;;;;;;;1.67;1.50;;;19.70;82.30;;;;;;5000403;28;20212;-94
2022/04/08 10:55:55;;;;;;;1.40;1.10;;;19.60;82.60;;;;;;4997881;28;20451;-91
2022/04/08 10:58:31;;;;;;;7.67;1.73;;;19.50;82.10;;;;;;5009216;28;20527;-90
2022/04/08 11:00:56;;;;;;;1.40;1.13;;;19.40;82.60;;;;;;4997055;28;20473;-93
2022/04/08 11:03:29;;;;;;;2.57;1.10;;;19.40;81.90;;;;;;5009648;28;20458;-90
2022/04/08 11:05:55;;;;;;;2.47;1.50;;;19.30;81.40;;;;;;4989233;28;20193;-90
2022/04/08 11:08:25;;;;;;;3.03;1.40;;;19.30;80.80;;;;;;5014449;28;20487;-90
2022/04/08 11:10:58;;;;;;;2.50;1.23;;;19.20;81.70;;;;;;5020297;28;20442;-94
2022/04/08 11:13:24;;;;;;;2.60;1.50;;;19.20;82.60;;;;;;5019832;28;20446;-94
2022/04/08 11:15:50;;;;;;;3.23;1.60;;;19.20;82.90;;;;;;5016173;28;21474;-94
2022/04/08 11:18:17;;;;;;;2.30;1.00;;;19.20;83.60;;;;;;5019118;28;20443;-95
2022/04/08 11:20:48;;;;;;;3.90;1.63;;;19.10;83.10;;;;;;5024834;28;20592;-92
2022/04/08 11:23:14;;;;;;;3.37;1.60;;;19.10;83.30;;;;;;5015225;28;20557;-91
2022/04/08 11:25:40;;;;;;;1.83;1.70;;;19.10;84.60;;;;;;5027664;28;20573;-90
2022/04/08 11:28:09;;;;;;;2.80;1.60;;;19.00;84.40;;;;;;5017879;28;20570;-94
2022/04/08 11:30:38;;;;;;;2.30;1.30;;;19.00;84.80;;;;;;5033026;28;20234;-94
2022/04/08 11:33:18;;;;;;;2.23;2.03;;;18.90;85.40;;;;;;5035928;28;20457;-90
2022/04/08 11:35:45;;;;;;;2.10;1.60;;;18.90;85.50;;;;;;5027150;28;20461;-94
2022/04/08 11:38:15;;;;;;;1.93;1.73;;;18.90;85.40;;;;;;5031174;28;20489;-90
2022/04/08 11:40:42;;;;;;;1.40;1.20;;;18.90;85.10;;;;;;5018165;28;20438;-89
2022/04/08 11:43:18;;;;;;;5.07;1.67;;;18.80;84.10;;;;;;5030293;28;20463;-90
2022/04/08 11:45:46;;;;;;;1.50;1.30;;;18.80;84.90;;;;;;5013681;28;20517;-95
2022/04/08 11:48:16;;;;;;;2.27;1.57;;;18.80;84.80;;;;;;5010620;28;20497;-94
2022/04/08 11:50:43;;;;;;;2.40;1.53;;;18.70;85.00;;;;;;5016007;28;20453;-94
2022/04/08 11:53:17;;;;;;;3.57;1.40;;;18.70;84.40;;;;;;5016005;28;20539;-94
2022/04/08 11:55:56;;;;;;;2.10;1.70;;;18.70;84.60;;;;;;5027805;28;20428;-92
2022/04/08 11:58:23;;;;;;;1.87;1.63;;;18.70;84.70;;;;;;5033872;28;20448;-93
2022/04/08 12:00:50;;;;;;;2.10;1.83;;;18.80;85.10;;;;;;5026123;28;20509;-89
2022/04/08 12:03:42;;;;;;;3.53;1.80;;;18.80;85.50;;;;;;5008945;28;20509;-90
2022/04/08 12:06:08;;;;;;;2.20;1.77;;;18.90;83.60;;;;;;5011028;28;20443;-89
2022/04/08 12:08:34;;;;;;;2.57;1.90;;;18.90;84.80;;;;;;5028779;28;20522;-94
2022/04/08 12:11:03;;;;;;;4.23;1.70;;;19.00;85.00;;;;;;5009685;28;20466;-94
2022/04/08 12:13:29;;;;;;;3.20;1.57;;;19.00;84.30;;;;;;5029739;28;20468;-90
2022/04/08 12:15:57;;;;;;;4.20;2.13;;;19.10;83.90;;;;;;5036843;28;20484;-90
2022/04/08 12:18:28;;;;;;;1.27;1.20;;;19.00;84.50;;;;;;5030210;28;20456;-90
2022/04/08 12:20:57;;;;;;;1.73;1.00;;;19.10;84.20;;;;;;5022085;28;20431;-90
2022/04/08 12:23:25;;;;;;;2.20;1.57;;;19.20;83.70;;;;;;5018462;28;20463;-89
2022/04/08 12:25:56;;;;;;;2.57;2.37;;;19.30;82.20;;;;;;5007695;28;20432;-94
2022/04/08 12:28:23;;;;;;;1.60;1.40;;;19.30;82.80;;;;;;5001833;28;20551;-94
2022/04/08 12:30:50;;;;;;;8.00;4.27;;;19.30;83.10;;;;;;5027634;28;20486;-90
2022/04/08 12:33:17;;;;;;;1.80;1.37;;;19.40;83.00;;;;;;5023555;28;20506;-94
2022/04/08 12:35:43;;;;;;;2.57;1.63;;;19.40;82.80;;;;;;5034133;28;20425;-91
2022/04/08 12:38:09;;;;;;;2.00;1.60;;;19.40;83.00;;;;;;5022818;28;21317;-92
2022/04/08 12:40:35;;;;;;;2.10;1.90;;;19.40;83.20;;;;;;5027667;28;20515;-93
2022/04/08 12:43:01;;;;;;;5.60;2.47;;;19.40;83.90;;;;;;5020984;28;20236;-90
2022/04/08 12:45:28;;;;;;;2.17;1.93;;;19.30;83.30;;;;;;5023933;28;20186;-90
2022/04/08 12:47:54;;;;;;;26.57;20.10;;;19.20;84.10;;;;;;5011704;28;20501;-90